createdAt,value
2019-02-16T00:00:20.284Z,-1.20
2019-02-16T00:02:48.732Z,-1.30
2019-02-16T00:05:17.158Z,-1.30
2019-02-16T00:07:45.610Z,-1.30
2019-02-16T00:10:14.032Z,-1.40
2019-02-16T00:12:47.006Z,-1.40
2019-02-16T00:15:15.418Z,-1.50
2019-02-16T00:17:43.853Z,-1.60
2019-02-16T00:20:12.345Z,-1.60
2019-02-16T00:22:40.839Z,-1.60
2019-02-16T00:25:09.299Z,-1.60
2019-02-16T00:27:37.758Z,-1.60
2019-02-16T00:30:07.718Z,-1.60
2019-02-16T00:32:36.139Z,-1.70
2019-02-16T00:35:06.019Z,-1.70
2019-02-16T00:37:34.441Z,-1.70
2019-02-16T00:40:04.330Z,-1.70
2019-02-16T00:42:32.742Z,-1.70
2019-02-16T00:45:01.210Z,-1.80
2019-02-16T00:47:29.616Z,-1.80
2019-02-16T00:49:58.067Z,-1.70
2019-02-16T00:52:26.475Z,-1.70
2019-02-16T00:54:54.917Z,-1.70
2019-02-16T00:57:23.354Z,-1.80
2019-02-16T00:59:51.770Z,-1.70
2019-02-16T01:02:20.221Z,-1.70
2019-02-16T01:04:48.627Z,-1.80
2019-02-16T01:07:17.279Z,-1.80
2019-02-16T01:09:45.690Z,-1.80
2019-02-16T01:12:14.134Z,-1.80
2019-02-16T01:14:45.604Z,-1.80
2019-02-16T01:17:14.141Z,-1.90
2019-02-16T01:19:42.604Z,-1.80
2019-02-16T01:22:11.172Z,-1.80
2019-02-16T01:24:39.587Z,-1.80
2019-02-16T01:27:08.044Z,-1.80
2019-02-16T01:29:36.506Z,-1.90
2019-02-16T01:32:04.934Z,-2.10
2019-02-16T01:34:33.382Z,-2.10
2019-02-16T01:37:02.178Z,-2.00
2019-02-16T01:39:30.781Z,-2.00
2019-02-16T01:41:59.209Z,-2.00
2019-02-16T01:44:27.634Z,-2.00
2019-02-16T01:46:56.041Z,-2.00
2019-02-16T01:49:24.493Z,-2.10
2019-02-16T01:51:52.906Z,-2.10
2019-02-16T01:54:21.313Z,-2.20
2019-02-16T01:56:49.754Z,-2.20
2019-02-16T01:59:18.163Z,-2.20
2019-02-16T02:01:46.610Z,-2.20
2019-02-16T02:04:15.059Z,-2.10
2019-02-16T02:06:43.495Z,-2.10
2019-02-16T02:09:12.435Z,-2.20
2019-02-16T02:11:40.882Z,-2.30
2019-02-16T02:14:09.335Z,-2.40
2019-02-16T02:16:37.810Z,-2.40
2019-02-16T02:19:06.271Z,-2.40
2019-02-16T02:21:40.882Z,-2.50
2019-02-16T02:24:04.854Z,-2.40
2019-02-16T02:26:33.390Z,-2.50
2019-02-16T02:29:01.827Z,-2.50
2019-02-16T02:31:30.257Z,-2.50
2019-02-16T02:33:58.846Z,-2.50
2019-02-16T02:36:27.272Z,-2.50
2019-02-16T02:38:55.711Z,-2.40
2019-02-16T02:41:24.146Z,-2.50
2019-02-16T02:43:52.609Z,-2.40
2019-02-16T02:46:21.054Z,-2.50
2019-02-16T02:48:49.510Z,-2.60
2019-02-16T02:51:17.929Z,-2.60
2019-02-16T02:53:46.347Z,-2.60
2019-02-16T02:56:14.840Z,-2.60
2019-02-16T02:58:43.279Z,-2.50
2019-02-16T03:01:11.683Z,-2.50
2019-02-16T03:03:40.117Z,-2.50
2019-02-16T03:06:08.551Z,-2.60
2019-02-16T03:08:36.962Z,-2.70
2019-02-16T03:11:05.596Z,-2.60
2019-02-16T03:13:34.023Z,-2.70
2019-02-16T03:16:02.459Z,-2.70
2019-02-16T03:18:30.917Z,-2.70
2019-02-16T03:20:59.346Z,-2.80
2019-02-16T03:23:28.102Z,-2.80
2019-02-16T03:26:05.336Z,-2.90
2019-02-16T03:28:45.500Z,-2.90
2019-02-16T03:31:35.073Z,-2.90
2019-02-16T03:34:06.817Z,-2.90
2019-02-16T03:36:44.434Z,-2.80
2019-02-16T03:39:15.046Z,-2.80
2019-02-16T03:41:43.450Z,-2.80
2019-02-16T03:44:12.067Z,-2.80
2019-02-16T03:46:40.479Z,-2.80
2019-02-16T03:49:08.891Z,-2.90
2019-02-16T03:51:37.339Z,-2.90
2019-02-16T03:54:05.755Z,-2.90
2019-02-16T03:56:34.190Z,-2.90
2019-02-16T03:59:02.612Z,-3.00
2019-02-16T04:01:34.227Z,-3.00
2019-02-16T04:04:02.651Z,-3.00
2019-02-16T04:06:31.085Z,-3.00
2019-02-16T04:08:59.499Z,-3.00
2019-02-16T04:11:27.942Z,-3.00
2019-02-16T04:13:56.399Z,-2.90
2019-02-16T04:16:24.856Z,-3.00
2019-02-16T04:18:53.275Z,-3.00
2019-02-16T04:21:21.685Z,-3.10
2019-02-16T04:23:50.147Z,-2.80
2019-02-16T04:26:18.564Z,-2.80
2019-02-16T04:28:47.021Z,-2.80
2019-02-16T04:31:15.437Z,-2.90
2019-02-16T04:33:43.871Z,-2.90
2019-02-16T04:36:12.294Z,-3.00
2019-02-16T04:38:40.951Z,-3.00
2019-02-16T04:41:09.363Z,-3.00
2019-02-16T04:43:37.810Z,-3.10
2019-02-16T04:46:06.223Z,-3.10
2019-02-16T04:48:34.656Z,-3.00
2019-02-16T04:51:03.082Z,-3.10
2019-02-16T04:53:31.528Z,-3.00
2019-02-16T04:56:04.623Z,-3.00
2019-02-16T04:58:33.079Z,-3.10
2019-02-16T05:01:01.604Z,-3.00
2019-02-16T05:03:30.131Z,-3.00
2019-02-16T05:05:59.982Z,-2.90
2019-02-16T05:08:28.799Z,-2.90
2019-02-16T05:10:57.275Z,-2.90
2019-02-16T05:13:25.762Z,-2.90
2019-02-16T05:15:54.211Z,-2.90
2019-02-16T05:18:22.624Z,-2.90
2019-02-16T05:20:51.045Z,-2.80
2019-02-16T05:23:19.470Z,-2.70
2019-02-16T05:25:47.882Z,-2.70
2019-02-16T05:28:16.381Z,-2.70
2019-02-16T05:30:44.820Z,-2.70
2019-02-16T05:33:16.244Z,-2.70
2019-02-16T05:35:44.646Z,-2.70
2019-02-16T05:38:13.134Z,-2.70
2019-02-16T05:40:41.548Z,-2.70
2019-02-16T05:43:09.963Z,-2.70
2019-02-16T05:45:38.399Z,-2.70
2019-02-16T05:48:06.808Z,-2.70
2019-02-16T05:50:38.358Z,-2.70
2019-02-16T05:53:06.774Z,-2.80
2019-02-16T05:55:35.219Z,-2.80
2019-02-16T05:58:03.640Z,-2.80
2019-02-16T06:00:32.101Z,-2.90
2019-02-16T06:03:00.513Z,-2.80
2019-02-16T06:05:33.359Z,-2.80
2019-02-16T06:08:01.809Z,-2.80
2019-02-16T06:10:30.320Z,-2.80
2019-02-16T06:12:58.750Z,-2.80
2019-02-16T06:15:27.166Z,-2.80
2019-02-16T06:17:55.624Z,-2.70
2019-02-16T06:20:24.042Z,-2.60
2019-02-16T06:22:52.458Z,-2.60
2019-02-16T06:25:20.915Z,-2.70
2019-02-16T06:27:49.385Z,-2.80
2019-02-16T06:30:17.786Z,-2.80
2019-02-16T06:32:46.230Z,-2.80
2019-02-16T06:35:31.221Z,-2.80
2019-02-16T06:37:59.685Z,-2.70
2019-02-16T06:40:28.236Z,-2.50
2019-02-16T06:42:56.682Z,-2.50
2019-02-16T06:45:25.187Z,-2.50
2019-02-16T06:47:53.605Z,-2.50
2019-02-16T06:50:25.590Z,-2.50
2019-02-16T06:52:54.003Z,-2.50
2019-02-16T06:55:24.138Z,-2.60
2019-02-16T06:57:52.605Z,-2.50
2019-02-16T07:00:22.670Z,-2.40
2019-02-16T07:02:51.102Z,-2.40
2019-02-16T07:05:19.522Z,-2.40
2019-02-16T07:07:51.079Z,-2.30
2019-02-16T07:10:19.608Z,-2.30
2019-02-16T07:12:48.057Z,-2.30
2019-02-16T07:15:16.491Z,-2.20
2019-02-16T07:17:52.534Z,-2.10
2019-02-16T07:20:26.584Z,-1.90
2019-02-16T07:22:54.994Z,-1.70
2019-02-16T07:25:23.429Z,-1.60
2019-02-16T07:27:51.881Z,-1.60
2019-02-16T07:30:20.294Z,-1.50
2019-02-16T07:32:48.756Z,-1.50
2019-02-16T07:35:17.231Z,-1.50
2019-02-16T07:37:45.771Z,-1.40
2019-02-16T07:40:14.207Z,-1.30
2019-02-16T07:42:50.082Z,-1.20
2019-02-16T07:45:22.295Z,-1.10
2019-02-16T07:47:58.508Z,-0.90
2019-02-16T07:50:34.414Z,-0.80
2019-02-16T07:53:04.502Z,-0.70
2019-02-16T07:55:37.232Z,-0.50
2019-02-16T07:58:22.662Z,-0.40
2019-02-16T08:00:55.542Z,-0.30
2019-02-16T08:03:34.446Z,-0.20
2019-02-16T08:06:07.179Z,-0.10
2019-02-16T08:08:49.199Z,-0.10
2019-02-16T08:11:19.281Z,0.10
2019-02-16T08:13:49.323Z,0.20
2019-02-16T08:16:22.398Z,0.30
2019-02-16T08:19:04.411Z,0.40
2019-02-16T08:21:37.951Z,0.50
2019-02-16T08:24:08.012Z,0.60
2019-02-16T08:26:46.741Z,0.70
2019-02-16T08:29:16.983Z,0.90
2019-02-16T08:31:49.998Z,1.10
2019-02-16T08:34:20.048Z,1.20
2019-02-16T08:36:57.603Z,1.40
2019-02-16T08:39:44.337Z,1.50
2019-02-16T08:42:29.590Z,1.70
2019-02-16T08:44:59.632Z,1.90
2019-02-16T08:47:35.609Z,2.00
2019-02-16T08:50:06.052Z,2.20
2019-02-16T08:52:39.070Z,2.30
2019-02-16T08:55:14.964Z,2.50
2019-02-16T08:57:48.063Z,2.60
2019-02-16T09:00:30.217Z,2.70
2019-02-16T09:03:09.334Z,2.90
2019-02-16T09:05:45.342Z,3.10
2019-02-16T09:08:25.216Z,3.20
2019-02-16T09:10:57.975Z,3.30
2019-02-16T09:13:36.942Z,3.40
2019-02-16T09:16:06.990Z,3.60
2019-02-16T09:18:37.063Z,3.70
2019-02-16T09:21:15.072Z,3.80
2019-02-16T09:23:58.881Z,3.90
2019-02-16T09:26:22.631Z,4.00
2019-02-16T09:28:52.705Z,4.10
2019-02-16T09:31:22.755Z,4.10
2019-02-16T09:34:09.135Z,4.30
2019-02-16T09:36:39.214Z,4.40
2019-02-16T09:39:11.990Z,4.50
2019-02-16T09:41:42.070Z,4.70
2019-02-16T09:44:12.161Z,4.80
2019-02-16T09:46:44.971Z,4.90
2019-02-16T09:49:15.062Z,5.00
2019-02-16T09:51:48.080Z,5.10
2019-02-16T09:54:18.137Z,5.20
2019-02-16T09:56:48.183Z,5.20
2019-02-16T09:59:18.508Z,5.30
2019-02-16T10:01:51.316Z,5.50
2019-02-16T10:04:21.394Z,5.50
2019-02-16T10:06:51.451Z,5.60
2019-02-16T10:09:27.548Z,5.70
2019-02-16T10:11:57.631Z,5.80
2019-02-16T10:14:30.374Z,5.80
2019-02-16T10:17:03.350Z,5.90
2019-02-16T10:19:35.814Z,6.00
2019-02-16T10:22:17.671Z,6.10
2019-02-16T10:25:03.879Z,6.20
2019-02-16T10:27:36.689Z,6.20
2019-02-16T10:30:14.310Z,6.30
2019-02-16T10:32:47.232Z,6.40
2019-02-16T10:35:32.272Z,6.50
2019-02-16T10:38:11.070Z,6.60
2019-02-16T10:40:56.018Z,6.70
2019-02-16T10:43:34.978Z,6.80
2019-02-16T10:46:22.913Z,6.90
2019-02-16T10:48:52.956Z,7.00
2019-02-16T10:51:23.038Z,7.10
2019-02-16T10:54:05.907Z,7.20
2019-02-16T10:56:38.957Z,7.30
2019-02-16T10:59:20.943Z,7.40
2019-02-16T11:02:07.403Z,7.50
2019-02-16T11:04:46.447Z,7.60
2019-02-16T11:07:19.434Z,7.70
2019-02-16T11:09:55.196Z,7.70
2019-02-16T11:12:25.275Z,7.80
2019-02-16T11:14:55.331Z,7.90
2019-02-16T11:17:37.753Z,8.00
2019-02-16T11:20:25.883Z,8.10
2019-02-16T11:23:02.030Z,8.20
2019-02-16T11:25:32.109Z,8.30
2019-02-16T11:28:10.960Z,8.40
2019-02-16T11:30:46.747Z,8.40
2019-02-16T11:33:19.261Z,8.40
2019-02-16T11:36:07.363Z,8.50
2019-02-16T11:38:59.370Z,8.70
2019-02-16T11:41:41.103Z,8.80
2019-02-16T11:44:13.932Z,8.90
2019-02-16T11:46:43.976Z,8.90
2019-02-16T11:49:30.275Z,9.00
2019-02-16T11:52:03.338Z,9.10
2019-02-16T11:54:45.933Z,9.20
2019-02-16T11:57:19.592Z,9.30
2019-02-16T12:00:04.771Z,9.40
2019-02-16T12:02:40.903Z,9.50
2019-02-16T12:05:11.035Z,9.60
2019-02-16T12:07:41.118Z,9.60
2019-02-16T12:10:14.649Z,9.80
2019-02-16T12:12:47.343Z,9.80
2019-02-16T12:15:20.144Z,9.90
2019-02-16T12:17:55.935Z,10.00
2019-02-16T12:20:33.689Z,10.10
2019-02-16T12:23:12.384Z,10.20
2019-02-16T12:25:42.524Z,10.30
2019-02-16T12:28:21.716Z,10.30
2019-02-16T12:31:00.532Z,10.40
2019-02-16T12:33:47.070Z,10.40
2019-02-16T12:36:21.886Z,10.50
2019-02-16T12:39:05.023Z,10.60
2019-02-16T12:41:41.083Z,10.60
2019-02-16T12:44:16.755Z,10.70
2019-02-16T12:47:03.238Z,10.80
2019-02-16T12:49:33.302Z,10.80
2019-02-16T12:52:15.225Z,10.90
2019-02-16T12:55:00.531Z,11.00
2019-02-16T12:57:34.150Z,11.10
2019-02-16T13:00:07.390Z,11.10
2019-02-16T13:02:46.241Z,11.20
2019-02-16T13:05:19.047Z,11.20
2019-02-16T13:07:57.877Z,11.30
2019-02-16T13:10:32.252Z,11.30
2019-02-16T13:13:02.530Z,11.40
2019-02-16T13:15:38.394Z,11.40
2019-02-16T13:18:08.460Z,11.40
2019-02-16T13:20:50.731Z,11.50
2019-02-16T13:23:23.571Z,11.50
2019-02-16T13:26:02.880Z,11.50
2019-02-16T13:28:49.078Z,11.60
2019-02-16T13:31:37.478Z,11.60
2019-02-16T13:34:19.552Z,11.60
2019-02-16T13:36:58.858Z,11.60
2019-02-16T13:39:28.906Z,11.70
2019-02-16T13:42:03.503Z,11.70
2019-02-16T13:44:49.762Z,11.70
2019-02-16T13:47:22.482Z,11.80
2019-02-16T13:49:52.579Z,11.80
2019-02-16T13:52:28.652Z,11.80
2019-02-16T13:55:07.654Z,11.90
2019-02-16T13:57:56.434Z,11.80
2019-02-16T14:00:26.538Z,11.80
2019-02-16T14:03:02.323Z,11.80
2019-02-16T14:05:32.400Z,11.90
2019-02-16T14:08:11.642Z,12.00
2019-02-16T14:10:41.698Z,12.00
2019-02-16T14:13:19.478Z,12.00
2019-02-16T14:15:49.578Z,12.00
2019-02-16T14:18:17.992Z,12.00
2019-02-16T14:20:46.458Z,12.00
2019-02-16T14:23:14.892Z,12.10
2019-02-16T14:25:45.809Z,12.10
2019-02-16T14:28:17.928Z,12.00
2019-02-16T14:30:46.419Z,12.00
2019-02-16T14:33:14.843Z,12.00
2019-02-16T14:35:43.292Z,12.00
2019-02-16T14:38:13.348Z,12.00
2019-02-16T14:40:41.762Z,12.00
2019-02-16T14:43:10.219Z,12.00
2019-02-16T14:45:39.415Z,12.00
2019-02-16T14:48:07.835Z,12.00
2019-02-16T14:50:36.277Z,12.00
2019-02-16T14:53:04.830Z,12.00
2019-02-16T14:55:33.283Z,11.90
2019-02-16T14:58:05.937Z,11.90
2019-02-16T15:00:34.341Z,11.90
2019-02-16T15:03:02.869Z,11.90
2019-02-16T15:05:31.281Z,11.90
2019-02-16T15:07:59.738Z,11.80
2019-02-16T15:10:28.165Z,11.80
2019-02-16T15:12:56.590Z,11.80
2019-02-16T15:15:25.025Z,11.80
2019-02-16T15:17:53.465Z,11.70
2019-02-16T15:20:21.905Z,11.70
2019-02-16T15:22:50.348Z,11.70
2019-02-16T15:25:18.757Z,11.60
2019-02-16T15:27:51.075Z,11.60
2019-02-16T15:30:21.122Z,11.60
2019-02-16T15:32:49.560Z,11.60
2019-02-16T15:35:17.968Z,11.60
2019-02-16T15:37:46.422Z,11.50
2019-02-16T15:40:14.830Z,11.40
2019-02-16T15:42:43.255Z,11.40
2019-02-16T15:45:13.590Z,11.40
2019-02-16T15:47:42.009Z,11.30
2019-02-16T15:50:12.673Z,11.30
2019-02-16T15:52:41.140Z,11.20
2019-02-16T15:55:11.202Z,11.10
2019-02-16T15:57:39.719Z,11.00
2019-02-16T16:00:20.733Z,11.10
2019-02-16T16:02:49.214Z,11.00
2019-02-16T16:05:17.664Z,10.90
2019-02-16T16:07:47.790Z,10.90
2019-02-16T16:10:20.595Z,10.80
2019-02-16T16:12:56.645Z,10.80
2019-02-16T16:15:41.573Z,10.60
2019-02-16T16:18:20.725Z,10.50
2019-02-16T16:21:00.008Z,10.40
2019-02-16T16:23:30.110Z,10.30
2019-02-16T16:26:00.208Z,10.20
2019-02-16T16:28:30.287Z,10.00
2019-02-16T16:31:00.354Z,9.80
2019-02-16T16:33:30.427Z,9.60
2019-02-16T16:36:06.638Z,9.40
2019-02-16T16:38:48.701Z,9.20
2019-02-16T16:41:24.670Z,9.00
2019-02-16T16:43:54.738Z,8.80
2019-02-16T16:46:24.899Z,8.60
2019-02-16T16:49:00.980Z,8.50
2019-02-16T16:51:31.029Z,8.40
2019-02-16T16:54:09.891Z,8.30
2019-02-16T16:56:39.978Z,8.20
2019-02-16T16:59:15.859Z,8.20
2019-02-16T17:01:57.630Z,8.10
2019-02-16T17:04:30.652Z,7.90
2019-02-16T17:07:06.832Z,7.80
2019-02-16T17:09:40.237Z,7.60
2019-02-16T17:12:16.158Z,7.50
2019-02-16T17:15:02.783Z,7.30
2019-02-16T17:17:49.313Z,7.20
2019-02-16T17:20:19.386Z,7.00
2019-02-16T17:22:51.897Z,6.70
2019-02-16T17:25:21.956Z,6.40
2019-02-16T17:28:01.029Z,6.20
2019-02-16T17:30:36.832Z,6.10
2019-02-16T17:33:06.886Z,6.20
2019-02-16T17:35:42.830Z,6.30
2019-02-16T17:38:29.347Z,6.20
2019-02-16T17:41:08.588Z,6.20
2019-02-16T17:43:44.494Z,6.10
2019-02-16T17:46:31.181Z,6.10
2019-02-16T17:49:03.955Z,6.10
2019-02-16T17:51:48.973Z,6.00
2019-02-16T17:54:21.626Z,6.00
2019-02-16T17:56:51.698Z,5.90
2019-02-16T17:59:21.769Z,5.70
2019-02-16T18:02:06.849Z,5.60
2019-02-16T18:04:46.852Z,5.40
2019-02-16T18:07:28.882Z,5.30
2019-02-16T18:10:01.733Z,5.30
2019-02-16T18:12:34.481Z,5.30
2019-02-16T18:15:20.519Z,5.20
2019-02-16T18:17:56.685Z,5.20
2019-02-16T18:20:29.824Z,5.20
2019-02-16T18:22:59.953Z,5.10
2019-02-16T18:25:30.240Z,5.10
2019-02-16T18:28:03.372Z,4.90
2019-02-16T18:30:33.422Z,4.90
2019-02-16T18:33:05.947Z,4.90
2019-02-16T18:35:41.788Z,4.80
2019-02-16T18:38:11.884Z,4.70
2019-02-16T18:40:58.402Z,4.60
2019-02-16T18:43:44.938Z,4.60
2019-02-16T18:46:20.926Z,4.50
2019-02-16T18:49:00.335Z,4.60
2019-02-16T18:51:30.375Z,4.60
2019-02-16T18:54:03.279Z,4.60
2019-02-16T18:56:51.637Z,4.60
2019-02-16T18:59:21.681Z,4.50
2019-02-16T19:01:55.964Z,4.40
2019-02-16T19:04:44.355Z,4.30
2019-02-16T19:07:20.594Z,4.20
2019-02-16T19:09:56.856Z,4.00
2019-02-16T19:12:29.695Z,4.00
2019-02-16T19:14:59.801Z,3.90
2019-02-16T19:17:29.874Z,3.90
2019-02-16T19:20:18.370Z,3.90
2019-02-16T19:23:06.654Z,3.90
2019-02-16T19:25:37.123Z,3.90
2019-02-16T19:28:19.544Z,4.10
2019-02-16T19:30:49.603Z,4.10
2019-02-16T19:33:19.755Z,4.30
2019-02-16T19:35:55.767Z,4.40
2019-02-16T19:38:31.951Z,4.50
2019-02-16T19:41:07.553Z,4.50
2019-02-16T19:43:55.584Z,4.60
2019-02-16T19:46:34.511Z,4.50
2019-02-16T19:49:07.914Z,4.50
2019-02-16T19:51:43.924Z,4.40
2019-02-16T19:54:29.887Z,4.30
2019-02-16T19:56:59.946Z,4.20
2019-02-16T19:59:44.535Z,4.20
2019-02-16T20:02:26.915Z,4.20
2019-02-16T20:05:12.045Z,4.20
2019-02-16T20:07:42.092Z,4.20
2019-02-16T20:10:28.321Z,4.20
2019-02-16T20:13:01.351Z,4.20
2019-02-16T20:15:46.518Z,4.10
2019-02-16T20:18:22.371Z,4.00
2019-02-16T20:20:52.409Z,3.80
2019-02-16T20:23:38.771Z,3.80
2019-02-16T20:26:17.808Z,3.70
2019-02-16T20:29:04.266Z,3.70
2019-02-16T20:31:50.751Z,3.50
2019-02-16T20:34:26.797Z,3.40
2019-02-16T20:36:56.867Z,3.40
2019-02-16T20:39:33.102Z,3.50
2019-02-16T20:42:19.390Z,3.50
2019-02-16T20:44:49.447Z,3.50
2019-02-16T20:47:19.522Z,3.40
2019-02-16T20:49:49.579Z,3.30
2019-02-16T20:52:22.360Z,3.30
2019-02-16T20:54:52.487Z,3.30
2019-02-16T20:57:47.076Z,3.30
2019-02-16T21:00:11.252Z,3.30
2019-02-16T21:02:50.164Z,3.20
2019-02-16T21:05:20.215Z,3.10
2019-02-16T21:07:52.984Z,3.10
2019-02-16T21:10:23.030Z,3.00
2019-02-16T21:12:53.119Z,3.00
2019-02-16T21:15:23.166Z,3.00
2019-02-16T21:17:53.254Z,3.00
2019-02-16T21:20:38.490Z,3.10
2019-02-16T21:23:20.483Z,3.10
2019-02-16T21:25:59.477Z,3.10
2019-02-16T21:28:29.564Z,3.00
2019-02-16T21:31:05.737Z,3.00
2019-02-16T21:33:38.802Z,3.00
2019-02-16T21:36:08.931Z,2.90
2019-02-16T21:38:38.987Z,2.90
2019-02-16T21:41:12.022Z,2.90
2019-02-16T21:43:45.061Z,2.80
2019-02-16T21:46:15.157Z,2.80
2019-02-16T21:48:57.438Z,2.80
2019-02-16T21:51:32.979Z,2.80
2019-02-16T21:54:12.068Z,2.60
2019-02-16T21:56:58.082Z,2.50
2019-02-16T21:59:40.274Z,2.40
2019-02-16T22:02:22.342Z,2.50
2019-02-16T22:05:12.563Z,2.40
2019-02-16T22:07:42.650Z,2.30
2019-02-16T22:10:15.696Z,2.40
2019-02-16T22:12:45.794Z,2.40
2019-02-16T22:15:19.182Z,2.40
2019-02-16T22:17:47.600Z,2.40
2019-02-16T22:20:16.046Z,2.40
2019-02-16T22:22:44.452Z,2.40
2019-02-16T22:25:12.875Z,2.40
2019-02-16T22:27:41.331Z,2.40
2019-02-16T22:30:11.071Z,2.40
2019-02-16T22:32:39.634Z,2.30
2019-02-16T22:35:08.782Z,2.20
2019-02-16T22:37:37.201Z,2.10
2019-02-16T22:40:07.368Z,2.00
2019-02-16T22:42:35.790Z,2.10
2019-02-16T22:45:06.561Z,2.10
2019-02-16T22:47:35.105Z,2.10
2019-02-16T22:50:04.209Z,2.10
2019-02-16T22:52:32.622Z,2.00
2019-02-16T22:55:01.309Z,1.90
2019-02-16T22:57:29.903Z,2.00
2019-02-16T22:59:58.354Z,2.00
2019-02-16T23:02:26.762Z,2.00
2019-02-16T23:04:55.216Z,1.90
2019-02-16T23:07:23.695Z,1.90
2019-02-16T23:09:52.103Z,1.90
2019-02-16T23:12:20.555Z,2.00
2019-02-16T23:14:48.967Z,2.00
2019-02-16T23:17:17.414Z,2.00
2019-02-16T23:19:46.014Z,2.00
2019-02-16T23:22:14.431Z,2.10
2019-02-16T23:24:42.870Z,2.00
2019-02-16T23:27:11.294Z,1.90
2019-02-16T23:29:39.737Z,1.80
2019-02-16T23:32:08.178Z,1.80
2019-02-16T23:34:37.126Z,1.70
2019-02-16T23:37:05.559Z,1.70
2019-02-16T23:39:33.986Z,1.50
2019-02-16T23:42:02.411Z,1.50
2019-02-16T23:44:31.094Z,1.30
2019-02-16T23:46:59.531Z,1.30
2019-02-16T23:49:27.960Z,1.30
2019-02-16T23:51:56.374Z,1.30
2019-02-16T23:54:24.814Z,1.20
2019-02-16T23:56:53.235Z,1.10
2019-02-16T23:59:21.676Z,1.10
